sensor_id;sensor_type;location;lat;lon;timestamp;P1;durP1;ratioP1;P2;durP2;ratioP2
5393;SDS011;2720;52.396;10.064;2022-09-09T00:01:10;3.47;;;3.17;;
5393;SDS011;2720;52.396;10.064;2022-09-09T00:03:52;3.43;;;3.07;;
5393;SDS011;2720;52.396;10.064;2022-09-09T00:06:24;3.60;;;3.30;;
5393;SDS011;2720;52.396;10.064;2022-09-09T00:08:59;3.47;;;2.60;;
5393;SDS011;2720;52.396;10.064;2022-09-09T00:11:30;3.60;;;2.47;;
5393;SDS011;2720;52.396;10.064;2022-09-09T00:14:06;2.90;;;2.67;;
5393;SDS011;2720;52.396;10.064;2022-09-09T00:16:45;9.20;;;3.20;;
5393;SDS011;2720;52.396;10.064;2022-09-09T00:19:18;5.23;;;3.13;;
5393;SDS011;2720;52.396;10.064;2022-09-09T00:21:49;3.20;;;2.90;;
5393;SDS011;2720;52.396;10.064;2022-09-09T00:24:24;6.80;;;2.83;;
5393;SDS011;2720;52.396;10.064;2022-09-09T00:26:56;3.10;;;2.43;;
5393;SDS011;2720;52.396;10.064;2022-09-09T00:29:33;5.70;;;2.03;;
5393;SDS011;2720;52.396;10.064;2022-09-09T00:32:09;4.47;;;2.13;;
5393;SDS011;2720;52.396;10.064;2022-09-09T00:34:46;7.57;;;2.50;;
5393;SDS011;2720;52.396;10.064;2022-09-09T00:37:14;10.33;;;2.03;;
5393;SDS011;2720;52.396;10.064;2022-09-09T00:39:43;3.17;;;2.33;;
5393;SDS011;2720;52.396;10.064;2022-09-09T00:42:14;5.40;;;1.87;;
5393;SDS011;2720;52.396;10.064;2022-09-09T00:44:55;3.47;;;2.30;;
5393;SDS011;2720;52.396;10.064;2022-09-09T00:50:17;2.77;;;2.10;;
5393;SDS011;2720;52.396;10.064;2022-09-09T00:52:57;3.43;;;2.07;;
5393;SDS011;2720;52.396;10.064;2022-09-09T00:55:33;1.83;;;1.73;;
5393;SDS011;2720;52.396;10.064;2022-09-09T00:58:08;5.10;;;1.73;;
5393;SDS011;2720;52.396;10.064;2022-09-09T01:00:38;2.30;;;1.77;;
5393;SDS011;2720;52.396;10.064;2022-09-09T01:03:17;2.57;;;1.50;;
5393;SDS011;2720;52.396;10.064;2022-09-09T01:05:50;2.80;;;2.33;;
5393;SDS011;2720;52.396;10.064;2022-09-09T01:08:31;1.70;;;1.60;;
5393;SDS011;2720;52.396;10.064;2022-09-09T01:11:20;2.60;;;1.87;;
5393;SDS011;2720;52.396;10.064;2022-09-09T01:13:52;3.83;;;1.80;;
5393;SDS011;2720;52.396;10.064;2022-09-09T01:16:26;2.50;;;1.77;;
5393;SDS011;2720;52.396;10.064;2022-09-09T01:18:56;4.63;;;1.60;;
5393;SDS011;2720;52.396;10.064;2022-09-09T01:21:29;3.80;;;1.70;;
5393;SDS011;2720;52.396;10.064;2022-09-09T01:24:20;2.83;;;1.63;;
5393;SDS011;2720;52.396;10.064;2022-09-09T01:26:52;2.33;;;1.40;;
5393;SDS011;2720;52.396;10.064;2022-09-09T01:29:23;6.57;;;2.60;;
5393;SDS011;2720;52.396;10.064;2022-09-09T01:31:52;1.60;;;1.50;;
5393;SDS011;2720;52.396;10.064;2022-09-09T01:34:21;6.50;;;2.30;;
5393;SDS011;2720;52.396;10.064;2022-09-09T01:36:50;5.97;;;1.43;;
5393;SDS011;2720;52.396;10.064;2022-09-09T01:39:23;3.00;;;1.70;;
5393;SDS011;2720;52.396;10.064;2022-09-09T01:41:51;1.87;;;1.70;;
5393;SDS011;2720;52.396;10.064;2022-09-09T01:44:21;2.13;;;1.40;;
5393;SDS011;2720;52.396;10.064;2022-09-09T01:46:49;4.30;;;1.60;;
5393;SDS011;2720;52.396;10.064;2022-09-09T01:49:16;2.17;;;1.40;;
5393;SDS011;2720;52.396;10.064;2022-09-09T01:51:44;1.37;;;1.27;;
5393;SDS011;2720;52.396;10.064;2022-09-09T01:54:15;3.07;;;1.73;;
5393;SDS011;2720;52.396;10.064;2022-09-09T01:56:44;1.40;;;1.30;;
5393;SDS011;2720;52.396;10.064;2022-09-09T02:02:16;7.47;;;1.67;;
5393;SDS011;2720;52.396;10.064;2022-09-09T02:04:45;1.13;;;1.13;;
5393;SDS011;2720;52.396;10.064;2022-09-09T02:07:19;3.13;;;1.67;;
5393;SDS011;2720;52.396;10.064;2022-09-09T02:09:57;2.20;;;2.00;;
5393;SDS011;2720;52.396;10.064;2022-09-09T02:12:27;3.30;;;1.50;;
5393;SDS011;2720;52.396;10.064;2022-09-09T02:14:58;7.90;;;1.80;;
5393;SDS011;2720;52.396;10.064;2022-09-09T02:17:31;3.83;;;1.80;;
5393;SDS011;2720;52.396;10.064;2022-09-09T02:20:03;2.00;;;1.47;;
5393;SDS011;2720;52.396;10.064;2022-09-09T02:22:33;2.00;;;1.30;;
5393;SDS011;2720;52.396;10.064;2022-09-09T02:25:05;3.23;;;1.50;;
5393;SDS011;2720;52.396;10.064;2022-09-09T02:27:34;3.23;;;1.27;;
5393;SDS011;2720;52.396;10.064;2022-09-09T02:30:03;1.73;;;1.50;;
5393;SDS011;2720;52.396;10.064;2022-09-09T02:32:32;3.80;;;1.50;;
5393;SDS011;2720;52.396;10.064;2022-09-09T02:35:02;3.70;;;1.50;;
5393;SDS011;2720;52.396;10.064;2022-09-09T02:37:34;2.67;;;1.17;;
5393;SDS011;2720;52.396;10.064;2022-09-09T02:40:03;5.77;;;2.30;;
5393;SDS011;2720;52.396;10.064;2022-09-09T02:42:31;9.00;;;1.33;;
5393;SDS011;2720;52.396;10.064;2022-09-09T02:45:06;3.57;;;1.73;;
5393;SDS011;2720;52.396;10.064;2022-09-09T02:47:35;3.40;;;1.47;;
5393;SDS011;2720;52.396;10.064;2022-09-09T02:50:08;2.40;;;1.07;;
5393;SDS011;2720;52.396;10.064;2022-09-09T02:52:42;2.47;;;1.80;;
5393;SDS011;2720;52.396;10.064;2022-09-09T02:55:17;11.00;;;1.60;;
5393;SDS011;2720;52.396;10.064;2022-09-09T02:57:50;3.60;;;1.73;;
5393;SDS011;2720;52.396;10.064;2022-09-09T03:00:24;7.80;;;1.67;;
5393;SDS011;2720;52.396;10.064;2022-09-09T03:02:51;3.33;;;1.70;;
5393;SDS011;2720;52.396;10.064;2022-09-09T03:05:19;8.97;;;1.53;;
5393;SDS011;2720;52.396;10.064;2022-09-09T03:07:46;2.10;;;1.90;;
5393;SDS011;2720;52.396;10.064;2022-09-09T03:10:14;4.23;;;1.50;;
5393;SDS011;2720;52.396;10.064;2022-09-09T03:12:42;3.90;;;1.40;;
5393;SDS011;2720;52.396;10.064;2022-09-09T03:15:09;8.80;;;2.03;;
5393;SDS011;2720;52.396;10.064;2022-09-09T03:17:38;4.83;;;1.60;;
5393;SDS011;2720;52.396;10.064;2022-09-09T03:20:05;3.80;;;1.90;;
5393;SDS011;2720;52.396;10.064;2022-09-09T03:22:33;5.20;;;1.63;;
5393;SDS011;2720;52.396;10.064;2022-09-09T03:25:00;6.20;;;1.87;;
5393;SDS011;2720;52.396;10.064;2022-09-09T03:27:28;6.33;;;1.70;;
5393;SDS011;2720;52.396;10.064;2022-09-09T03:29:55;3.87;;;1.30;;
5393;SDS011;2720;52.396;10.064;2022-09-09T03:32:22;2.87;;;1.60;;
5393;SDS011;2720;52.396;10.064;2022-09-09T03:34:52;2.40;;;2.00;;
5393;SDS011;2720;52.396;10.064;2022-09-09T03:37:19;1.90;;;1.70;;
5393;SDS011;2720;52.396;10.064;2022-09-09T03:39:47;6.43;;;2.00;;
5393;SDS011;2720;52.396;10.064;2022-09-09T03:42:15;4.00;;;2.17;;
5393;SDS011;2720;52.396;10.064;2022-09-09T03:44:43;3.80;;;2.47;;
5393;SDS011;2720;52.396;10.064;2022-09-09T03:47:12;12.27;;;2.23;;
5393;SDS011;2720;52.396;10.064;2022-09-09T03:49:39;1.90;;;1.80;;
5393;SDS011;2720;52.396;10.064;2022-09-09T03:52:07;3.97;;;1.80;;
5393;SDS011;2720;52.396;10.064;2022-09-09T03:54:34;8.63;;;2.67;;
5393;SDS011;2720;52.396;10.064;2022-09-09T03:57:01;4.70;;;2.23;;
5393;SDS011;2720;52.396;10.064;2022-09-09T03:59:29;2.37;;;1.80;;
5393;SDS011;2720;52.396;10.064;2022-09-09T04:01:56;1.80;;;1.70;;
5393;SDS011;2720;52.396;10.064;2022-09-09T04:04:24;3.47;;;2.13;;
5393;SDS011;2720;52.396;10.064;2022-09-09T04:06:52;8.63;;;2.30;;
5393;SDS011;2720;52.396;10.064;2022-09-09T04:09:20;2.10;;;1.90;;
5393;SDS011;2720;52.396;10.064;2022-09-09T04:11:48;2.23;;;2.03;;
5393;SDS011;2720;52.396;10.064;2022-09-09T04:14:15;4.60;;;1.47;;
5393;SDS011;2720;52.396;10.064;2022-09-09T04:16:42;5.33;;;2.00;;
5393;SDS011;2720;52.396;10.064;2022-09-09T04:19:09;5.43;;;2.23;;
5393;SDS011;2720;52.396;10.064;2022-09-09T04:21:37;4.60;;;1.70;;
5393;SDS011;2720;52.396;10.064;2022-09-09T04:24:06;7.80;;;1.77;;
5393;SDS011;2720;52.396;10.064;2022-09-09T04:26:34;6.90;;;1.80;;
5393;SDS011;2720;52.396;10.064;2022-09-09T04:29:02;5.77;;;2.40;;
5393;SDS011;2720;52.396;10.064;2022-09-09T04:31:30;3.93;;;1.83;;
5393;SDS011;2720;52.396;10.064;2022-09-09T04:33:57;7.30;;;2.33;;
5393;SDS011;2720;52.396;10.064;2022-09-09T04:36:27;2.93;;;1.60;;
5393;SDS011;2720;52.396;10.064;2022-09-09T04:38:54;3.40;;;2.40;;
5393;SDS011;2720;52.396;10.064;2022-09-09T04:41:21;3.13;;;2.60;;
5393;SDS011;2720;52.396;10.064;2022-09-09T04:43:50;10.00;;;1.80;;
5393;SDS011;2720;52.396;10.064;2022-09-09T04:46:18;2.27;;;1.70;;
5393;SDS011;2720;52.396;10.064;2022-09-09T04:48:45;4.43;;;1.90;;
5393;SDS011;2720;52.396;10.064;2022-09-09T04:51:13;2.33;;;2.13;;
5393;SDS011;2720;52.396;10.064;2022-09-09T04:53:41;5.27;;;2.20;;
5393;SDS011;2720;52.396;10.064;2022-09-09T04:56:08;3.50;;;2.07;;
5393;SDS011;2720;52.396;10.064;2022-09-09T04:58:37;8.70;;;2.70;;
5393;SDS011;2720;52.396;10.064;2022-09-09T05:01:07;8.23;;;2.23;;
5393;SDS011;2720;52.396;10.064;2022-09-09T05:03:35;7.60;;;2.53;;
5393;SDS011;2720;52.396;10.064;2022-09-09T05:06:03;8.53;;;2.27;;
5393;SDS011;2720;52.396;10.064;2022-09-09T05:08:32;3.93;;;2.33;;
5393;SDS011;2720;52.396;10.064;2022-09-09T05:10:59;3.20;;;1.80;;
5393;SDS011;2720;52.396;10.064;2022-09-09T05:13:26;2.30;;;2.10;;
5393;SDS011;2720;52.396;10.064;2022-09-09T05:15:54;2.10;;;1.90;;
5393;SDS011;2720;52.396;10.064;2022-09-09T05:18:22;3.90;;;1.70;;
5393;SDS011;2720;52.396;10.064;2022-09-09T05:20:49;5.73;;;2.47;;
5393;SDS011;2720;52.396;10.064;2022-09-09T05:23:17;9.70;;;2.30;;
5393;SDS011;2720;52.396;10.064;2022-09-09T05:25:52;7.33;;;2.93;;
5393;SDS011;2720;52.396;10.064;2022-09-09T05:28:22;5.00;;;1.90;;
5393;SDS011;2720;52.396;10.064;2022-09-09T05:30:55;13.20;;;2.80;;
5393;SDS011;2720;52.396;10.064;2022-09-09T05:33:24;9.90;;;2.93;;
5393;SDS011;2720;52.396;10.064;2022-09-09T05:35:55;7.50;;;2.53;;
5393;SDS011;2720;52.396;10.064;2022-09-09T05:38:23;3.50;;;2.10;;
5393;SDS011;2720;52.396;10.064;2022-09-09T05:40:50;8.97;;;3.07;;
5393;SDS011;2720;52.396;10.064;2022-09-09T05:43:17;6.43;;;2.43;;
5393;SDS011;2720;52.396;10.064;2022-09-09T05:45:45;4.63;;;2.47;;
5393;SDS011;2720;52.396;10.064;2022-09-09T05:48:12;12.20;;;2.70;;
5393;SDS011;2720;52.396;10.064;2022-09-09T05:50:42;5.07;;;2.60;;
5393;SDS011;2720;52.396;10.064;2022-09-09T05:53:10;4.47;;;2.40;;
5393;SDS011;2720;52.396;10.064;2022-09-09T05:55:37;2.43;;;2.23;;
5393;SDS011;2720;52.396;10.064;2022-09-09T05:58:04;9.50;;;2.90;;
5393;SDS011;2720;52.396;10.064;2022-09-09T06:00:31;7.90;;;2.13;;
5393;SDS011;2720;52.396;10.064;2022-09-09T06:02:58;10.73;;;2.43;;
5393;SDS011;2720;52.396;10.064;2022-09-09T06:05:25;8.07;;;3.17;;
5393;SDS011;2720;52.396;10.064;2022-09-09T06:07:55;13.50;;;2.90;;
5393;SDS011;2720;52.396;10.064;2022-09-09T06:10:22;7.67;;;3.20;;
5393;SDS011;2720;52.396;10.064;2022-09-09T06:12:52;5.87;;;2.80;;
5393;SDS011;2720;52.396;10.064;2022-09-09T06:15:19;4.10;;;3.00;;
5393;SDS011;2720;52.396;10.064;2022-09-09T06:17:46;5.20;;;2.77;;
5393;SDS011;2720;52.396;10.064;2022-09-09T06:20:14;13.83;;;2.70;;
5393;SDS011;2720;52.396;10.064;2022-09-09T06:22:41;4.20;;;2.33;;
5393;SDS011;2720;52.396;10.064;2022-09-09T06:25:13;6.07;;;3.17;;
5393;SDS011;2720;52.396;10.064;2022-09-09T06:27:40;3.97;;;2.50;;
5393;SDS011;2720;52.396;10.064;2022-09-09T06:30:08;5.33;;;2.80;;
5393;SDS011;2720;52.396;10.064;2022-09-09T06:32:36;7.23;;;3.03;;
5393;SDS011;2720;52.396;10.064;2022-09-09T06:35:04;5.20;;;2.60;;
5393;SDS011;2720;52.396;10.064;2022-09-09T06:37:32;3.10;;;2.80;;
5393;SDS011;2720;52.396;10.064;2022-09-09T06:39:59;7.30;;;3.13;;
5393;SDS011;2720;52.396;10.064;2022-09-09T06:42:28;11.37;;;2.90;;
5393;SDS011;2720;52.396;10.064;2022-09-09T06:44:55;7.00;;;3.53;;
5393;SDS011;2720;52.396;10.064;2022-09-09T06:47:22;4.63;;;2.37;;
5393;SDS011;2720;52.396;10.064;2022-09-09T06:49:49;7.00;;;2.90;;
5393;SDS011;2720;52.396;10.064;2022-09-09T06:52:16;6.93;;;2.80;;
5393;SDS011;2720;52.396;10.064;2022-09-09T06:54:44;6.90;;;3.10;;
5393;SDS011;2720;52.396;10.064;2022-09-09T06:57:11;3.03;;;2.07;;
5393;SDS011;2720;52.396;10.064;2022-09-09T06:59:39;4.23;;;2.20;;
5393;SDS011;2720;52.396;10.064;2022-09-09T07:02:07;2.70;;;1.90;;
5393;SDS011;2720;52.396;10.064;2022-09-09T07:04:34;2.20;;;1.77;;
5393;SDS011;2720;52.396;10.064;2022-09-09T07:07:02;7.73;;;2.27;;
5393;SDS011;2720;52.396;10.064;2022-09-09T07:09:29;5.43;;;1.93;;
5393;SDS011;2720;52.396;10.064;2022-09-09T07:11:56;2.10;;;1.47;;
5393;SDS011;2720;52.396;10.064;2022-09-09T07:14:24;3.47;;;1.47;;
5393;SDS011;2720;52.396;10.064;2022-09-09T07:16:53;1.87;;;1.50;;
5393;SDS011;2720;52.396;10.064;2022-09-09T07:19:20;4.30;;;1.67;;
5393;SDS011;2720;52.396;10.064;2022-09-09T07:21:47;7.90;;;2.10;;
5393;SDS011;2720;52.396;10.064;2022-09-09T07:24:15;5.47;;;1.47;;
5393;SDS011;2720;52.396;10.064;2022-09-09T07:26:42;5.40;;;2.10;;
5393;SDS011;2720;52.396;10.064;2022-09-09T07:29:10;5.17;;;1.87;;
5393;SDS011;2720;52.396;10.064;2022-09-09T07:31:39;5.23;;;1.80;;
5393;SDS011;2720;52.396;10.064;2022-09-09T07:34:07;10.17;;;2.10;;
5393;SDS011;2720;52.396;10.064;2022-09-09T07:36:35;2.40;;;1.40;;
5393;SDS011;2720;52.396;10.064;2022-09-09T07:39:05;3.30;;;1.73;;
5393;SDS011;2720;52.396;10.064;2022-09-09T07:41:34;5.10;;;2.10;;
5393;SDS011;2720;52.396;10.064;2022-09-09T07:44:04;2.20;;;1.27;;
5393;SDS011;2720;52.396;10.064;2022-09-09T07:46:32;9.80;;;1.80;;
5393;SDS011;2720;52.396;10.064;2022-09-09T07:49:00;5.23;;;1.67;;
5393;SDS011;2720;52.396;10.064;2022-09-09T07:51:29;6.57;;;1.60;;
5393;SDS011;2720;52.396;10.064;2022-09-09T07:53:57;3.70;;;1.50;;
5393;SDS011;2720;52.396;10.064;2022-09-09T07:56:27;3.60;;;1.53;;
5393;SDS011;2720;52.396;10.064;2022-09-09T07:58:55;4.40;;;2.07;;
5393;SDS011;2720;52.396;10.064;2022-09-09T08:01:24;4.70;;;2.10;;
5393;SDS011;2720;52.396;10.064;2022-09-09T08:03:54;5.43;;;1.37;;
5393;SDS011;2720;52.396;10.064;2022-09-09T08:06:24;5.23;;;1.60;;
5393;SDS011;2720;52.396;10.064;2022-09-09T08:08:53;1.60;;;1.50;;
5393;SDS011;2720;52.396;10.064;2022-09-09T08:11:21;2.50;;;2.10;;
5393;SDS011;2720;52.396;10.064;2022-09-09T08:13:50;5.27;;;2.13;;
5393;SDS011;2720;52.396;10.064;2022-09-09T08:16:18;4.30;;;1.70;;
5393;SDS011;2720;52.396;10.064;2022-09-09T08:18:48;7.70;;;2.00;;
5393;SDS011;2720;52.396;10.064;2022-09-09T08:21:17;3.10;;;1.60;;
5393;SDS011;2720;52.396;10.064;2022-09-09T08:23:45;5.33;;;2.17;;
5393;SDS011;2720;52.396;10.064;2022-09-09T08:26:15;5.23;;;2.00;;
5393;SDS011;2720;52.396;10.064;2022-09-09T08:28:47;5.80;;;2.03;;
5393;SDS011;2720;52.396;10.064;2022-09-09T08:31:17;6.60;;;2.00;;
5393;SDS011;2720;52.396;10.064;2022-09-09T08:33:45;4.33;;;2.00;;
5393;SDS011;2720;52.396;10.064;2022-09-09T08:36:12;7.13;;;1.90;;
5393;SDS011;2720;52.396;10.064;2022-09-09T08:38:41;3.33;;;1.23;;
5393;SDS011;2720;52.396;10.064;2022-09-09T08:41:31;6.53;;;1.40;;
5393;SDS011;2720;52.396;10.064;2022-09-09T08:44:18;3.13;;;1.50;;
5393;SDS011;2720;52.396;10.064;2022-09-09T08:46:55;3.30;;;1.43;;
5393;SDS011;2720;52.396;10.064;2022-09-09T08:49:43;6.17;;;1.93;;
5393;SDS011;2720;52.396;10.064;2022-09-09T08:52:25;4.93;;;1.57;;
5393;SDS011;2720;52.396;10.064;2022-09-09T08:54:56;8.27;;;1.90;;
5393;SDS011;2720;52.396;10.064;2022-09-09T08:57:29;6.57;;;1.60;;
5393;SDS011;2720;52.396;10.064;2022-09-09T08:59:58;2.50;;;1.07;;
5393;SDS011;2720;52.396;10.064;2022-09-09T09:02:26;3.70;;;1.30;;
5393;SDS011;2720;52.396;10.064;2022-09-09T09:05:06;6.63;;;1.20;;
5393;SDS011;2720;52.396;10.064;2022-09-09T09:07:49;7.50;;;1.70;;
5393;SDS011;2720;52.396;10.064;2022-09-09T09:10:29;2.70;;;1.03;;
5393;SDS011;2720;52.396;10.064;2022-09-09T09:13:14;1.53;;;0.80;;
5393;SDS011;2720;52.396;10.064;2022-09-09T09:15:43;4.70;;;1.00;;
5393;SDS011;2720;52.396;10.064;2022-09-09T09:18:16;3.27;;;0.90;;
5393;SDS011;2720;52.396;10.064;2022-09-09T09:20:47;4.27;;;1.17;;
5393;SDS011;2720;52.396;10.064;2022-09-09T09:23:24;6.70;;;1.73;;
5393;SDS011;2720;52.396;10.064;2022-09-09T09:25:52;4.63;;;1.10;;
5393;SDS011;2720;52.396;10.064;2022-09-09T09:28:26;4.37;;;1.30;;
5393;SDS011;2720;52.396;10.064;2022-09-09T09:30:56;4.90;;;1.27;;
5393;SDS011;2720;52.396;10.064;2022-09-09T09:33:27;2.70;;;1.20;;
5393;SDS011;2720;52.396;10.064;2022-09-09T09:35:58;1.80;;;0.90;;
5393;SDS011;2720;52.396;10.064;2022-09-09T09:38:26;4.67;;;0.90;;
5393;SDS011;2720;52.396;10.064;2022-09-09T09:40:54;5.90;;;0.97;;
5393;SDS011;2720;52.396;10.064;2022-09-09T09:43:24;7.50;;;0.97;;
5393;SDS011;2720;52.396;10.064;2022-09-09T09:45:54;3.90;;;0.80;;
5393;SDS011;2720;52.396;10.064;2022-09-09T09:48:23;2.30;;;0.90;;
5393;SDS011;2720;52.396;10.064;2022-09-09T09:50:51;7.03;;;2.70;;
5393;SDS011;2720;52.396;10.064;2022-09-09T09:53:21;7.13;;;1.10;;
5393;SDS011;2720;52.396;10.064;2022-09-09T09:55:52;3.73;;;1.30;;
5393;SDS011;2720;52.396;10.064;2022-09-09T09:58:22;1.70;;;0.73;;
5393;SDS011;2720;52.396;10.064;2022-09-09T10:00:52;8.87;;;1.10;;
5393;SDS011;2720;52.396;10.064;2022-09-09T10:03:22;3.37;;;0.90;;
5393;SDS011;2720;52.396;10.064;2022-09-09T10:05:51;3.77;;;0.83;;
5393;SDS011;2720;52.396;10.064;2022-09-09T10:08:18;2.77;;;1.17;;
5393;SDS011;2720;52.396;10.064;2022-09-09T10:11:02;1.67;;;0.70;;
5393;SDS011;2720;52.396;10.064;2022-09-09T10:13:44;5.93;;;1.30;;
5393;SDS011;2720;52.396;10.064;2022-09-09T10:16:24;5.97;;;1.40;;
5393;SDS011;2720;52.396;10.064;2022-09-09T10:19:02;5.60;;;1.30;;
5393;SDS011;2720;52.396;10.064;2022-09-09T10:21:35;3.17;;;1.30;;
5393;SDS011;2720;52.396;10.064;2022-09-09T10:24:23;5.33;;;1.20;;
5393;SDS011;2720;52.396;10.064;2022-09-09T10:27:03;3.73;;;0.90;;
5393;SDS011;2720;52.396;10.064;2022-09-09T10:29:45;3.63;;;1.00;;
5393;SDS011;2720;52.396;10.064;2022-09-09T10:32:32;2.63;;;0.70;;
5393;SDS011;2720;52.396;10.064;2022-09-09T10:35:04;3.60;;;1.00;;
5393;SDS011;2720;52.396;10.064;2022-09-09T10:37:41;6.20;;;1.27;;
5393;SDS011;2720;52.396;10.064;2022-09-09T10:40:26;11.73;;;0.93;;
5393;SDS011;2720;52.396;10.064;2022-09-09T10:43:02;8.20;;;1.60;;
5393;SDS011;2720;52.396;10.064;2022-09-09T10:45:39;4.40;;;1.00;;
5393;SDS011;2720;52.396;10.064;2022-09-09T10:48:18;2.80;;;1.03;;
5393;SDS011;2720;52.396;10.064;2022-09-09T10:50:59;3.53;;;1.27;;
5393;SDS011;2720;52.396;10.064;2022-09-09T10:53:49;2.57;;;1.13;;
5393;SDS011;2720;52.396;10.064;2022-09-09T10:56:22;9.70;;;1.23;;
5393;SDS011;2720;52.396;10.064;2022-09-09T10:58:51;7.30;;;1.53;;
5393;SDS011;2720;52.396;10.064;2022-09-09T11:01:24;4.53;;;1.13;;
5393;SDS011;2720;52.396;10.064;2022-09-09T11:03:57;3.33;;;1.50;;
5393;SDS011;2720;52.396;10.064;2022-09-09T11:06:32;15.53;;;1.20;;
5393;SDS011;2720;52.396;10.064;2022-09-09T11:09:07;6.00;;;1.77;;
5393;SDS011;2720;52.396;10.064;2022-09-09T11:11:41;4.53;;;1.77;;
5393;SDS011;2720;52.396;10.064;2022-09-09T11:14:12;7.80;;;1.47;;
5393;SDS011;2720;52.396;10.064;2022-09-09T11:16:47;5.80;;;1.77;;
5393;SDS011;2720;52.396;10.064;2022-09-09T11:19:21;5.40;;;1.83;;
5393;SDS011;2720;52.396;10.064;2022-09-09T11:21:53;7.70;;;2.00;;
5393;SDS011;2720;52.396;10.064;2022-09-09T11:24:23;10.50;;;1.50;;
5393;SDS011;2720;52.396;10.064;2022-09-09T11:26:56;5.73;;;1.57;;
5393;SDS011;2720;52.396;10.064;2022-09-09T11:29:36;9.37;;;1.60;;
5393;SDS011;2720;52.396;10.064;2022-09-09T11:32:25;10.17;;;1.63;;
5393;SDS011;2720;52.396;10.064;2022-09-09T11:35:05;8.47;;;1.53;;
5393;SDS011;2720;52.396;10.064;2022-09-09T11:37:49;8.40;;;1.57;;
5393;SDS011;2720;52.396;10.064;2022-09-09T11:40:36;3.70;;;1.30;;
5393;SDS011;2720;52.396;10.064;2022-09-09T11:43:04;2.83;;;0.77;;
5393;SDS011;2720;52.396;10.064;2022-09-09T11:45:38;3.97;;;1.00;;
5393;SDS011;2720;52.396;10.064;2022-09-09T11:48:21;2.30;;;0.80;;
5393;SDS011;2720;52.396;10.064;2022-09-09T11:50:58;5.43;;;1.30;;
5393;SDS011;2720;52.396;10.064;2022-09-09T11:53:27;2.87;;;0.80;;
5393;SDS011;2720;52.396;10.064;2022-09-09T11:56:05;16.63;;;1.43;;
5393;SDS011;2720;52.396;10.064;2022-09-09T11:58:39;15.00;;;1.83;;
5393;SDS011;2720;52.396;10.064;2022-09-09T12:01:14;6.23;;;1.87;;
5393;SDS011;2720;52.396;10.064;2022-09-09T12:04:01;2.10;;;1.30;;
5393;SDS011;2720;52.396;10.064;2022-09-09T12:06:54;8.27;;;1.87;;
5393;SDS011;2720;52.396;10.064;2022-09-09T12:09:25;10.87;;;1.40;;
5393;SDS011;2720;52.396;10.064;2022-09-09T12:12:05;5.67;;;1.57;;
5393;SDS011;2720;52.396;10.064;2022-09-09T12:14:57;4.60;;;1.63;;
5393;SDS011;2720;52.396;10.064;2022-09-09T12:17:27;9.63;;;1.60;;
5393;SDS011;2720;52.396;10.064;2022-09-09T12:20:03;3.47;;;1.70;;
5393;SDS011;2720;52.396;10.064;2022-09-09T12:22:40;4.50;;;1.50;;
5393;SDS011;2720;52.396;10.064;2022-09-09T12:25:23;4.33;;;1.87;;
5393;SDS011;2720;52.396;10.064;2022-09-09T12:27:59;4.50;;;1.90;;
5393;SDS011;2720;52.396;10.064;2022-09-09T12:30:34;10.47;;;2.70;;
5393;SDS011;2720;52.396;10.064;2022-09-09T12:33:08;2.70;;;1.70;;
5393;SDS011;2720;52.396;10.064;2022-09-09T12:35:39;4.07;;;1.50;;
5393;SDS011;2720;52.396;10.064;2022-09-09T12:38:11;9.13;;;1.50;;
5393;SDS011;2720;52.396;10.064;2022-09-09T12:40:41;8.70;;;2.07;;
5393;SDS011;2720;52.396;10.064;2022-09-09T12:43:16;11.80;;;1.97;;
5393;SDS011;2720;52.396;10.064;2022-09-09T12:45:44;9.23;;;2.23;;
5393;SDS011;2720;52.396;10.064;2022-09-09T12:48:12;6.20;;;1.80;;
5393;SDS011;2720;52.396;10.064;2022-09-09T12:50:43;5.77;;;1.90;;
5393;SDS011;2720;52.396;10.064;2022-09-09T12:53:15;1.73;;;0.90;;
5393;SDS011;2720;52.396;10.064;2022-09-09T12:55:49;4.63;;;1.00;;
5393;SDS011;2720;52.396;10.064;2022-09-09T12:58:17;4.37;;;1.27;;
5393;SDS011;2720;52.396;10.064;2022-09-09T13:00:48;2.40;;;1.30;;
5393;SDS011;2720;52.396;10.064;2022-09-09T13:03:17;3.13;;;1.10;;
5393;SDS011;2720;52.396;10.064;2022-09-09T13:05:46;3.33;;;1.53;;
5393;SDS011;2720;52.396;10.064;2022-09-09T13:08:15;5.43;;;0.97;;
5393;SDS011;2720;52.396;10.064;2022-09-09T13:10:46;1.47;;;0.97;;
5393;SDS011;2720;52.396;10.064;2022-09-09T13:13:17;7.00;;;1.43;;
5393;SDS011;2720;52.396;10.064;2022-09-09T13:15:48;3.97;;;1.00;;
5393;SDS011;2720;52.396;10.064;2022-09-09T13:18:17;5.77;;;1.63;;
5393;SDS011;2720;52.396;10.064;2022-09-09T13:20:47;7.70;;;0.97;;
5393;SDS011;2720;52.396;10.064;2022-09-09T13:23:16;6.63;;;1.10;;
5393;SDS011;2720;52.396;10.064;2022-09-09T13:25:52;2.30;;;1.00;;
5393;SDS011;2720;52.396;10.064;2022-09-09T13:28:21;8.50;;;1.20;;
5393;SDS011;2720;52.396;10.064;2022-09-09T13:30:56;3.70;;;1.47;;
5393;SDS011;2720;52.396;10.064;2022-09-09T13:33:31;1.13;;;0.77;;
5393;SDS011;2720;52.396;10.064;2022-09-09T13:36:02;3.27;;;0.97;;
5393;SDS011;2720;52.396;10.064;2022-09-09T13:38:33;9.17;;;1.33;;
5393;SDS011;2720;52.396;10.064;2022-09-09T13:41:03;9.33;;;1.53;;
5393;SDS011;2720;52.396;10.064;2022-09-09T13:43:34;3.73;;;0.90;;
5393;SDS011;2720;52.396;10.064;2022-09-09T13:46:04;4.80;;;1.17;;
5393;SDS011;2720;52.396;10.064;2022-09-09T13:48:53;3.10;;;1.30;;
5393;SDS011;2720;52.396;10.064;2022-09-09T13:51:21;6.47;;;1.77;;
5393;SDS011;2720;52.396;10.064;2022-09-09T13:53:57;9.03;;;1.53;;
5393;SDS011;2720;52.396;10.064;2022-09-09T13:56:25;6.63;;;1.23;;
5393;SDS011;2720;52.396;10.064;2022-09-09T13:58:52;12.60;;;1.47;;
5393;SDS011;2720;52.396;10.064;2022-09-09T14:01:19;8.50;;;1.63;;
5393;SDS011;2720;52.396;10.064;2022-09-09T14:03:46;13.20;;;2.00;;
5393;SDS011;2720;52.396;10.064;2022-09-09T14:06:13;12.60;;;1.33;;
5393;SDS011;2720;52.396;10.064;2022-09-09T14:08:40;17.77;;;1.53;;
5393;SDS011;2720;52.396;10.064;2022-09-09T14:11:09;9.70;;;1.97;;
5393;SDS011;2720;52.396;10.064;2022-09-09T14:13:39;5.70;;;1.30;;
5393;SDS011;2720;52.396;10.064;2022-09-09T14:16:06;8.20;;;1.30;;
5393;SDS011;2720;52.396;10.064;2022-09-09T14:18:33;2.80;;;1.33;;
5393;SDS011;2720;52.396;10.064;2022-09-09T14:21:00;2.07;;;0.93;;
5393;SDS011;2720;52.396;10.064;2022-09-09T14:23:27;6.70;;;1.47;;
5393;SDS011;2720;52.396;10.064;2022-09-09T14:25:54;2.43;;;1.10;;
5393;SDS011;2720;52.396;10.064;2022-09-09T14:28:23;2.50;;;1.00;;
5393;SDS011;2720;52.396;10.064;2022-09-09T14:30:50;5.47;;;1.00;;
5393;SDS011;2720;52.396;10.064;2022-09-09T14:33:17;5.67;;;1.43;;
5393;SDS011;2720;52.396;10.064;2022-09-09T14:35:44;3.93;;;0.77;;
5393;SDS011;2720;52.396;10.064;2022-09-09T14:38:11;1.27;;;0.60;;
5393;SDS011;2720;52.396;10.064;2022-09-09T14:40:39;1.90;;;0.73;;
5393;SDS011;2720;52.396;10.064;2022-09-09T14:43:06;1.60;;;0.53;;
5393;SDS011;2720;52.396;10.064;2022-09-09T14:45:38;6.77;;;0.73;;
5393;SDS011;2720;52.396;10.064;2022-09-09T14:48:05;5.73;;;1.03;;
5393;SDS011;2720;52.396;10.064;2022-09-09T14:50:32;4.50;;;1.03;;
5393;SDS011;2720;52.396;10.064;2022-09-09T14:52:59;1.10;;;0.67;;
5393;SDS011;2720;52.396;10.064;2022-09-09T14:55:26;3.30;;;1.03;;
5393;SDS011;2720;52.396;10.064;2022-09-09T14:57:54;6.47;;;1.00;;
5393;SDS011;2720;52.396;10.064;2022-09-09T15:00:21;1.30;;;0.70;;
5393;SDS011;2720;52.396;10.064;2022-09-09T15:02:52;4.37;;;0.83;;
5393;SDS011;2720;52.396;10.064;2022-09-09T15:05:19;0.87;;;0.60;;
5393;SDS011;2720;52.396;10.064;2022-09-09T15:07:47;5.00;;;0.80;;
5393;SDS011;2720;52.396;10.064;2022-09-09T15:10:14;3.60;;;1.00;;
5393;SDS011;2720;52.396;10.064;2022-09-09T15:12:42;2.27;;;0.80;;
5393;SDS011;2720;52.396;10.064;2022-09-09T15:15:09;0.90;;;0.80;;
5393;SDS011;2720;52.396;10.064;2022-09-09T15:17:37;1.80;;;0.80;;
5393;SDS011;2720;52.396;10.064;2022-09-09T15:20:06;7.70;;;1.00;;
5393;SDS011;2720;52.396;10.064;2022-09-09T15:22:34;3.80;;;0.90;;
5393;SDS011;2720;52.396;10.064;2022-09-09T15:25:03;5.23;;;1.00;;
5393;SDS011;2720;52.396;10.064;2022-09-09T15:27:30;4.20;;;1.10;;
5393;SDS011;2720;52.396;10.064;2022-09-09T15:29:59;2.70;;;0.80;;